createdAt,value
2023-01-11T00:00:15.524Z,0.00
2023-01-11T00:01:15.546Z,0.00
2023-01-11T00:02:15.569Z,0.00
2023-01-11T00:03:15.508Z,0.00
2023-01-11T00:04:15.467Z,0.00
2023-01-11T00:05:15.465Z,0.00
2023-01-11T00:06:15.472Z,0.00
2023-01-11T00:07:15.452Z,0.00
2023-01-11T00:08:15.436Z,0.00
2023-01-11T00:09:15.425Z,0.00
2023-01-11T00:10:15.432Z,0.00
2023-01-11T00:11:15.396Z,0.00
2023-01-11T00:12:15.444Z,0.00
2023-01-11T00:13:15.475Z,0.00
2023-01-11T00:14:15.352Z,0.00
2023-01-11T00:15:15.364Z,0.00
2023-01-11T00:16:15.367Z,0.00
2023-01-11T00:17:15.333Z,0.00
2023-01-11T00:18:15.587Z,0.00
2023-01-11T00:19:15.336Z,0.00
2023-01-11T00:20:15.304Z,0.00
2023-01-11T00:21:15.305Z,0.00
2023-01-11T00:22:15.280Z,0.00
2023-01-11T00:23:15.272Z,0.00
2023-01-11T00:24:15.253Z,0.00
2023-01-11T00:25:15.245Z,0.00
2023-01-11T00:26:15.227Z,0.00
2023-01-11T00:27:15.236Z,0.00
2023-01-11T00:28:15.206Z,0.00
2023-01-11T00:29:15.204Z,0.00
2023-01-11T00:30:15.181Z,0.00
2023-01-11T00:31:15.247Z,0.00
2023-01-11T00:32:15.168Z,0.00
2023-01-11T00:33:15.165Z,0.00
2023-01-11T00:34:15.148Z,0.00
2023-01-11T00:35:15.125Z,0.00
2023-01-11T00:36:15.113Z,0.00
2023-01-11T00:37:15.114Z,0.00
2023-01-11T00:38:15.105Z,0.00
2023-01-11T00:39:15.096Z,0.00
2023-01-11T00:40:15.066Z,0.00
2023-01-11T00:41:15.069Z,0.00
2023-01-11T00:42:15.049Z,0.00
2023-01-11T00:43:15.046Z,0.00
2023-01-11T00:44:15.045Z,0.00
2023-01-11T00:45:15.029Z,0.00
2023-01-11T00:46:15.038Z,0.00
2023-01-11T00:47:15.003Z,0.00
2023-01-11T00:48:14.979Z,0.00
2023-01-11T00:49:14.977Z,0.00
2023-01-11T00:50:14.968Z,0.00
2023-01-11T00:51:14.957Z,0.00
2023-01-11T00:52:14.948Z,0.00
2023-01-11T00:53:14.937Z,0.00
2023-01-11T00:54:14.915Z,0.00
2023-01-11T00:55:14.925Z,0.00
2023-01-11T00:56:14.898Z,0.00
2023-01-11T00:57:14.887Z,0.00
2023-01-11T00:58:14.868Z,0.00
2023-01-11T00:59:14.937Z,0.00
2023-01-11T01:00:14.840Z,0.00
2023-01-11T01:01:14.886Z,0.00
2023-01-11T01:02:14.843Z,0.00
2023-01-11T01:03:14.818Z,0.00
2023-01-11T01:04:14.797Z,0.00
2023-01-11T01:05:14.821Z,0.00
2023-01-11T01:06:14.783Z,0.00
2023-01-11T01:07:14.774Z,0.00
2023-01-11T01:08:14.758Z,0.00
2023-01-11T01:09:14.754Z,0.00
2023-01-11T01:10:14.734Z,0.00
2023-01-11T01:11:14.714Z,0.00
2023-01-11T01:12:14.706Z,0.00
2023-01-11T01:13:14.696Z,0.00
2023-01-11T01:14:14.701Z,0.00
2023-01-11T01:15:14.693Z,0.00
2023-01-11T01:16:14.732Z,0.00
2023-01-11T01:17:14.645Z,0.00
2023-01-11T01:18:14.646Z,0.00
2023-01-11T01:19:14.636Z,0.00
2023-01-11T01:20:14.631Z,0.00
2023-01-11T01:21:14.632Z,0.00
2023-01-11T01:22:14.605Z,0.00
2023-01-11T01:23:14.575Z,0.00
2023-01-11T01:24:14.578Z,0.00
2023-01-11T01:25:14.684Z,0.00
2023-01-11T01:26:14.565Z,0.00
2023-01-11T01:27:14.535Z,0.00
2023-01-11T01:28:14.526Z,0.00
2023-01-11T01:29:14.547Z,0.00
2023-01-11T01:30:14.571Z,0.00
2023-01-11T01:31:14.596Z,0.00
2023-01-11T01:32:14.495Z,0.00
2023-01-11T01:33:14.463Z,0.00
2023-01-11T01:34:14.466Z,0.00
2023-01-11T01:35:14.453Z,0.00
2023-01-11T01:36:14.458Z,0.00
2023-01-11T01:37:14.435Z,0.00
2023-01-11T01:38:14.417Z,0.00
2023-01-11T01:39:14.409Z,0.00
2023-01-11T01:40:14.413Z,0.00
2023-01-11T01:41:14.370Z,0.00
2023-01-11T01:42:14.454Z,0.00
2023-01-11T01:43:14.351Z,0.00
2023-01-11T01:44:14.347Z,0.00
2023-01-11T01:45:14.326Z,0.00
2023-01-11T01:46:14.371Z,0.00
2023-01-11T01:47:14.306Z,0.00
2023-01-11T01:48:14.328Z,0.00
2023-01-11T01:49:14.283Z,0.00
2023-01-11T01:50:14.286Z,0.00
2023-01-11T01:51:14.255Z,0.00
2023-01-11T01:52:14.294Z,0.00
2023-01-11T01:53:14.237Z,0.00
2023-01-11T01:54:14.234Z,0.00
2023-01-11T01:55:14.218Z,0.00
2023-01-11T01:56:14.216Z,0.00
2023-01-11T01:57:14.196Z,0.00
2023-01-11T01:58:14.211Z,0.00
2023-01-11T01:59:14.198Z,0.00
2023-01-11T02:00:14.172Z,0.00
2023-01-11T02:01:14.161Z,0.00
2023-01-11T02:02:14.155Z,0.00
2023-01-11T02:03:14.127Z,0.00
2023-01-11T02:04:14.138Z,0.00
2023-01-11T02:05:14.112Z,0.00
2023-01-11T02:06:14.098Z,0.00
2023-01-11T02:07:14.105Z,0.00
2023-01-11T02:08:14.079Z,0.00
2023-01-11T02:09:14.075Z,0.00
2023-01-11T02:10:14.066Z,0.00
2023-01-11T02:11:14.039Z,0.00
2023-01-11T02:12:14.051Z,0.00
2023-01-11T02:13:14.010Z,0.00
2023-01-11T02:14:14.019Z,0.00
2023-01-11T02:15:14.011Z,0.00
2023-01-11T02:16:14.010Z,0.00
2023-01-11T02:17:13.994Z,0.00
2023-01-11T02:18:13.973Z,0.00
2023-01-11T02:19:13.946Z,0.00
2023-01-11T02:20:13.963Z,0.00
2023-01-11T02:21:13.925Z,0.00
2023-01-11T02:22:13.919Z,0.00
2023-01-11T02:23:13.896Z,0.00
2023-01-11T02:24:13.896Z,0.00
2023-01-11T02:25:13.887Z,0.00
2023-01-11T02:26:13.888Z,0.00
2023-01-11T02:27:13.863Z,0.00
2023-01-11T02:28:13.848Z,0.00
2023-01-11T02:29:13.831Z,0.00
2023-01-11T02:30:13.843Z,0.00
2023-01-11T02:31:13.864Z,0.00
2023-01-11T02:32:13.795Z,0.00
2023-01-11T02:33:13.775Z,0.00
2023-01-11T02:34:13.779Z,0.00
2023-01-11T02:35:13.757Z,0.00
2023-01-11T02:36:13.783Z,0.00
2023-01-11T02:37:13.736Z,0.00
2023-01-11T02:38:13.735Z,0.00
2023-01-11T02:39:13.727Z,0.00
2023-01-11T02:40:13.730Z,0.00
2023-01-11T02:41:13.715Z,0.00
2023-01-11T02:42:13.708Z,0.00
2023-01-11T02:43:13.668Z,0.00
2023-01-11T02:44:13.678Z,0.00
2023-01-11T02:45:13.647Z,0.00
2023-01-11T02:46:13.692Z,0.00
2023-01-11T02:47:13.647Z,0.00
2023-01-11T02:48:13.615Z,0.00
2023-01-11T02:49:13.600Z,0.00
2023-01-11T02:50:13.599Z,0.00
2023-01-11T02:51:13.579Z,0.00
2023-01-11T02:52:13.606Z,0.00
2023-01-11T02:53:13.559Z,0.00
2023-01-11T02:54:13.560Z,0.00
2023-01-11T02:55:13.743Z,0.00
2023-01-11T02:56:13.547Z,0.00
2023-01-11T02:57:13.528Z,0.00
2023-01-11T02:58:13.519Z,0.00
2023-01-11T02:59:13.495Z,0.00
2023-01-11T03:00:13.491Z,0.00
2023-01-11T03:01:13.469Z,0.00
2023-01-11T03:02:13.470Z,0.00
2023-01-11T03:03:13.502Z,0.00
2023-01-11T03:04:13.461Z,0.00
2023-01-11T03:05:13.433Z,0.00
2023-01-11T03:06:13.428Z,0.00
2023-01-11T03:07:13.403Z,0.00
2023-01-11T03:08:13.412Z,0.00
2023-01-11T03:09:13.502Z,0.00
2023-01-11T03:10:13.383Z,0.00
2023-01-11T03:11:13.361Z,0.00
2023-01-11T03:12:13.365Z,0.00
2023-01-11T03:13:13.344Z,0.00
2023-01-11T03:14:13.351Z,0.00
2023-01-11T03:15:13.327Z,0.00
2023-01-11T03:16:13.376Z,0.00
2023-01-11T03:17:13.300Z,0.00
2023-01-11T03:18:13.301Z,0.00
2023-01-11T03:19:13.280Z,0.00
2023-01-11T03:20:13.260Z,0.00
2023-01-11T03:21:13.239Z,0.00
2023-01-11T03:22:13.257Z,0.00
2023-01-11T03:23:13.277Z,0.00
2023-01-11T03:24:13.220Z,0.00
2023-01-11T03:25:13.221Z,0.00
2023-01-11T03:26:13.229Z,0.00
2023-01-11T03:27:13.182Z,0.00
2023-01-11T03:28:13.200Z,0.00
2023-01-11T03:29:13.159Z,0.00
2023-01-11T03:30:13.166Z,0.00
2023-01-11T03:31:13.177Z,0.00
2023-01-11T03:32:13.140Z,0.00
2023-01-11T03:33:13.112Z,0.00
2023-01-11T03:34:13.104Z,0.00
2023-01-11T03:35:13.092Z,0.00
2023-01-11T03:36:13.080Z,0.00
2023-01-11T03:37:13.088Z,0.00
2023-01-11T03:38:13.081Z,0.00
2023-01-11T03:39:13.057Z,0.00
2023-01-11T03:40:13.049Z,0.00
2023-01-11T03:41:13.025Z,0.00
2023-01-11T03:42:13.038Z,0.00
2023-01-11T03:43:12.999Z,0.00
2023-01-11T03:44:12.995Z,0.00
2023-01-11T03:45:12.975Z,0.00
2023-01-11T03:46:12.982Z,0.00
2023-01-11T03:47:19.704Z,0.00
2023-01-11T03:48:12.953Z,0.00
2023-01-11T03:49:12.939Z,0.00
2023-01-11T03:50:12.927Z,0.00
2023-01-11T03:51:12.935Z,0.00
2023-01-11T03:52:12.899Z,0.00
2023-01-11T03:53:12.884Z,0.00
2023-01-11T03:54:12.880Z,0.00
2023-01-11T03:55:12.868Z,0.00
2023-01-11T03:56:12.876Z,0.00
2023-01-11T03:57:12.874Z,0.00
2023-01-11T03:58:12.842Z,0.00
2023-01-11T03:59:12.819Z,0.00
2023-01-11T04:00:12.813Z,0.00
2023-01-11T04:01:12.845Z,0.00
2023-01-11T04:02:12.789Z,0.00
2023-01-11T04:03:12.779Z,0.00
2023-01-11T04:04:12.856Z,0.00
2023-01-11T04:05:12.761Z,0.00
2023-01-11T04:06:12.744Z,0.00
2023-01-11T04:07:12.721Z,0.00
2023-01-11T04:08:12.759Z,0.00
2023-01-11T04:09:12.702Z,0.00
2023-01-11T04:10:12.702Z,0.00
2023-01-11T04:11:12.699Z,0.00
2023-01-11T04:12:12.684Z,0.00
2023-01-11T04:13:12.689Z,0.00
2023-01-11T04:14:13.242Z,0.00
2023-01-11T04:15:12.645Z,0.00
2023-01-11T04:16:12.685Z,0.00
2023-01-11T04:17:12.613Z,0.00
2023-01-11T04:18:12.649Z,0.00
2023-01-11T04:19:12.597Z,0.00
2023-01-11T04:20:12.593Z,0.00
2023-01-11T04:21:12.564Z,0.00
2023-01-11T04:22:12.569Z,0.00
2023-01-11T04:23:12.549Z,0.00
2023-01-11T04:24:12.541Z,0.00
2023-01-11T04:25:12.524Z,0.00
2023-01-11T04:26:12.515Z,0.00
2023-01-11T04:27:12.490Z,0.00
2023-01-11T04:28:12.517Z,0.00
2023-01-11T04:29:12.490Z,0.00
2023-01-11T04:30:12.891Z,0.00
2023-01-11T04:31:12.491Z,0.00
2023-01-11T04:32:12.453Z,0.00
2023-01-11T04:33:12.443Z,0.00
2023-01-11T04:34:12.770Z,0.00
2023-01-11T04:35:12.403Z,0.00
2023-01-11T04:36:12.421Z,0.00
2023-01-11T04:37:12.589Z,0.00
2023-01-11T04:38:12.381Z,0.00
2023-01-11T04:39:12.381Z,0.00
2023-01-11T04:40:12.365Z,0.00
2023-01-11T04:41:12.342Z,0.00
2023-01-11T04:42:12.338Z,0.00
2023-01-11T04:43:12.322Z,0.00
2023-01-11T04:44:12.338Z,0.00
2023-01-11T04:45:12.308Z,0.00
2023-01-11T04:46:12.309Z,0.00
2023-01-11T04:47:12.283Z,0.00
2023-01-11T04:48:12.266Z,0.00
2023-01-11T04:49:12.265Z,0.00
2023-01-11T04:50:12.302Z,0.00
2023-01-11T04:51:12.234Z,0.00
2023-01-11T04:52:12.229Z,0.00
2023-01-11T04:53:12.207Z,0.00
2023-01-11T04:54:12.219Z,0.00
2023-01-11T04:55:12.182Z,0.00
2023-01-11T04:56:12.215Z,0.00
2023-01-11T04:57:12.163Z,0.00
2023-01-11T04:58:12.159Z,0.00
2023-01-11T04:59:12.153Z,0.00
2023-01-11T05:00:12.142Z,0.00
2023-01-11T05:01:12.282Z,0.00
2023-01-11T05:02:12.101Z,0.00
2023-01-11T05:03:12.095Z,0.00
2023-01-11T05:04:13.511Z,0.00
2023-01-11T05:05:12.082Z,0.00
2023-01-11T05:06:12.083Z,0.00
2023-01-11T05:07:12.068Z,0.00
2023-01-11T05:08:12.043Z,0.00
2023-01-11T05:09:12.054Z,0.00
2023-01-11T05:10:12.034Z,0.00
2023-01-11T05:11:12.015Z,0.00
2023-01-11T05:12:11.998Z,0.00
2023-01-11T05:13:12.005Z,0.00
2023-01-11T05:14:12.102Z,0.00
2023-01-11T05:15:11.986Z,0.00
2023-01-11T05:16:11.987Z,0.00
2023-01-11T05:17:11.956Z,0.00
2023-01-11T05:18:11.936Z,0.00
2023-01-11T05:19:11.913Z,0.00
2023-01-11T05:20:11.924Z,0.00
2023-01-11T05:21:11.906Z,0.00
2023-01-11T05:22:11.884Z,0.00
2023-01-11T05:23:11.870Z,0.00
2023-01-11T05:24:11.893Z,0.00
2023-01-11T05:25:11.857Z,0.00
2023-01-11T05:26:11.865Z,0.00
2023-01-11T05:27:11.843Z,0.00
2023-01-11T05:28:11.804Z,0.00
2023-01-11T05:29:11.814Z,0.00
2023-01-11T05:30:11.808Z,0.00
2023-01-11T05:31:11.778Z,0.00
2023-01-11T05:32:11.785Z,0.00
2023-01-11T05:33:11.764Z,0.00
2023-01-11T05:34:11.747Z,0.00
2023-01-11T05:35:11.740Z,0.00
2023-01-11T05:36:11.729Z,0.00
2023-01-11T05:37:11.739Z,0.00
2023-01-11T05:38:11.697Z,0.00
2023-01-11T05:39:11.694Z,0.00
2023-01-11T05:40:11.686Z,0.00
2023-01-11T05:41:11.681Z,0.00
2023-01-11T05:42:11.683Z,0.00
2023-01-11T05:43:11.669Z,0.00
2023-01-11T05:44:11.661Z,0.00
2023-01-11T05:45:11.653Z,0.00
2023-01-11T05:46:11.636Z,0.00
2023-01-11T05:47:11.593Z,0.00
2023-01-11T05:48:11.597Z,0.00
2023-01-11T05:49:11.594Z,0.00
2023-01-11T05:50:11.617Z,0.00
2023-01-11T05:51:11.565Z,0.00
2023-01-11T05:52:11.548Z,0.00
2023-01-11T05:53:11.568Z,0.00
2023-01-11T05:54:11.567Z,0.00
2023-01-11T05:55:11.525Z,0.00
2023-01-11T05:56:11.490Z,0.00
2023-01-11T05:57:11.537Z,0.00
2023-01-11T05:58:11.478Z,0.00
2023-01-11T05:59:11.484Z,0.00
2023-01-11T06:00:11.497Z,0.00
2023-01-11T06:01:11.457Z,0.00
2023-01-11T06:02:11.516Z,0.00
2023-01-11T06:03:11.645Z,0.00
2023-01-11T06:04:11.403Z,0.00
2023-01-11T06:05:11.396Z,0.00
2023-01-11T06:06:11.397Z,0.00
2023-01-11T06:07:11.376Z,0.00
2023-01-11T06:08:11.350Z,0.00
2023-01-11T06:09:11.363Z,0.00
2023-01-11T06:10:11.356Z,0.00
2023-01-11T06:11:11.365Z,0.00
2023-01-11T06:12:11.317Z,0.00
2023-01-11T06:13:11.306Z,0.00
2023-01-11T06:14:11.296Z,0.00
2023-01-11T06:15:11.326Z,0.00
2023-01-11T06:16:11.382Z,0.00
2023-01-11T06:17:11.273Z,0.00
2023-01-11T06:18:11.265Z,0.00
2023-01-11T06:19:11.271Z,0.00
2023-01-11T06:20:11.239Z,0.00
2023-01-11T06:21:11.224Z,0.00
2023-01-11T06:22:11.245Z,0.00
2023-01-11T06:23:11.206Z,0.00
2023-01-11T06:24:11.177Z,0.00
2023-01-11T06:25:11.164Z,0.00
2023-01-11T06:26:11.439Z,0.00
2023-01-11T06:27:11.172Z,0.00
2023-01-11T06:28:11.270Z,0.00
2023-01-11T06:29:11.137Z,0.00
2023-01-11T06:30:11.121Z,0.00
2023-01-11T06:31:11.216Z,0.00
2023-01-11T06:32:11.114Z,0.00
2023-01-11T06:33:11.103Z,0.00
2023-01-11T06:34:11.098Z,0.00
2023-01-11T06:35:11.058Z,0.00
2023-01-11T06:36:11.038Z,0.00
2023-01-11T06:37:11.049Z,0.00
2023-01-11T06:38:11.018Z,0.00
2023-01-11T06:39:11.038Z,0.00
2023-01-11T06:40:11.005Z,0.00
2023-01-11T06:41:10.988Z,0.00
2023-01-11T06:42:10.979Z,0.00
2023-01-11T06:43:11.762Z,0.00
2023-01-11T06:44:10.966Z,0.00
2023-01-11T06:45:10.974Z,0.00
2023-01-11T06:46:10.953Z,0.00
2023-01-11T06:47:10.937Z,0.00
2023-01-11T06:48:10.905Z,0.00
2023-01-11T06:49:10.901Z,0.00
2023-01-11T06:50:10.928Z,0.00
2023-01-11T06:51:10.931Z,0.00
2023-01-11T06:52:10.858Z,0.00
2023-01-11T06:53:10.869Z,0.00
2023-01-11T06:54:10.858Z,0.00
2023-01-11T06:55:10.844Z,0.00
2023-01-11T06:56:10.850Z,0.00
2023-01-11T06:57:10.820Z,0.00
2023-01-11T06:58:10.799Z,0.00
2023-01-11T06:59:10.791Z,0.00
2023-01-11T07:00:10.778Z,0.00
2023-01-11T07:01:10.778Z,0.00
2023-01-11T07:02:10.759Z,0.00
2023-01-11T07:03:10.976Z,0.00
2023-01-11T07:04:10.746Z,0.00
2023-01-11T07:05:10.770Z,0.00
2023-01-11T07:06:10.713Z,0.00
2023-01-11T07:07:10.687Z,0.00
2023-01-11T07:08:10.686Z,0.00
2023-01-11T07:09:10.682Z,0.00
2023-01-11T07:10:10.670Z,0.00
2023-01-11T07:11:10.746Z,0.00
2023-01-11T07:12:10.637Z,0.00
2023-01-11T07:13:10.631Z,0.00
2023-01-11T07:14:10.639Z,4.00
2023-01-11T07:15:10.660Z,4.00
2023-01-11T07:16:10.726Z,0.00
2023-01-11T07:17:10.585Z,0.00
2023-01-11T07:18:10.567Z,0.00
2023-01-11T07:19:10.594Z,4.00
2023-01-11T07:20:10.549Z,4.00
2023-01-11T07:21:10.550Z,4.00
2023-01-11T07:22:10.525Z,4.00
2023-01-11T07:23:10.526Z,4.00
2023-01-11T07:24:10.500Z,4.00
2023-01-11T07:25:10.518Z,4.00
2023-01-11T07:26:10.524Z,4.00
2023-01-11T07:27:10.491Z,8.00
2023-01-11T07:28:10.457Z,8.00
2023-01-11T07:29:10.453Z,8.00
2023-01-11T07:30:10.500Z,8.00
2023-01-11T07:31:10.453Z,4.00
2023-01-11T07:32:10.411Z,8.00
2023-01-11T07:33:10.423Z,8.00
2023-01-11T07:34:10.403Z,8.00
2023-01-11T07:35:10.400Z,8.00
2023-01-11T07:36:10.804Z,4.00
2023-01-11T07:37:28.983Z,8.00
2023-01-11T07:38:11.361Z,8.00
2023-01-11T07:39:10.342Z,8.00
2023-01-11T07:40:10.335Z,8.00
2023-01-11T07:41:10.354Z,8.00
2023-01-11T07:42:10.299Z,8.00
2023-01-11T07:43:10.644Z,8.00
2023-01-11T07:44:10.273Z,8.00
2023-01-11T07:45:10.282Z,8.00
2023-01-11T07:46:10.344Z,12.00
2023-01-11T07:47:10.317Z,8.00
2023-01-11T07:48:10.220Z,8.00
2023-01-11T07:49:10.239Z,8.00
2023-01-11T07:50:10.211Z,8.00
2023-01-11T07:51:10.222Z,8.00
2023-01-11T07:52:10.179Z,12.00
2023-01-11T07:53:10.183Z,8.00
2023-01-11T07:54:10.167Z,12.00
2023-01-11T07:55:10.162Z,12.00
2023-01-11T07:56:10.154Z,16.00
2023-01-11T07:57:10.135Z,20.00
2023-01-11T07:58:10.139Z,24.00
2023-01-11T07:59:10.112Z,36.00
2023-01-11T08:00:10.111Z,40.00
2023-01-11T08:01:10.091Z,40.00
2023-01-11T08:02:10.092Z,44.00
2023-01-11T08:03:10.305Z,48.00
2023-01-11T08:04:10.069Z,44.00
2023-01-11T08:05:10.051Z,44.00
2023-01-11T08:06:10.055Z,44.00
2023-01-11T08:07:10.023Z,40.00
2023-01-11T08:08:10.021Z,32.00
2023-01-11T08:09:10.008Z,36.00
2023-01-11T08:10:09.992Z,44.00
2023-01-11T08:11:10.007Z,44.00
2023-01-11T08:12:09.962Z,44.00
2023-01-11T08:13:09.967Z,48.00
2023-01-11T08:14:09.962Z,48.00
2023-01-11T08:15:09.937Z,44.00
2023-01-11T08:16:09.971Z,48.00
2023-01-11T08:17:09.921Z,56.00
2023-01-11T08:18:09.896Z,52.00
2023-01-11T08:19:09.895Z,60.00
2023-01-11T08:20:09.904Z,60.00
2023-01-11T08:21:09.873Z,44.00
2023-01-11T08:22:09.868Z,48.00
2023-01-11T08:23:09.890Z,48.00
2023-01-11T08:24:09.825Z,40.00
2023-01-11T08:25:09.852Z,32.00
2023-01-11T08:26:09.804Z,44.00
2023-01-11T08:27:09.849Z,60.00
2023-01-11T08:28:09.784Z,68.00
2023-01-11T08:29:09.778Z,68.00
2023-01-11T08:30:09.792Z,64.00
2023-01-11T08:31:09.785Z,56.00
2023-01-11T08:32:09.748Z,64.00
2023-01-11T08:33:09.735Z,60.00
2023-01-11T08:34:09.716Z,56.00
2023-01-11T08:35:09.733Z,44.00
2023-01-11T08:36:09.693Z,44.00
2023-01-11T08:37:09.687Z,40.00
2023-01-11T08:38:09.665Z,44.00
2023-01-11T08:39:09.666Z,52.00
2023-01-11T08:40:09.666Z,60.00
2023-01-11T08:41:09.641Z,56.00
2023-01-11T08:42:09.613Z,56.00
2023-01-11T08:43:09.613Z,56.00
2023-01-11T08:44:09.597Z,64.00
2023-01-11T08:45:09.617Z,68.00
2023-01-11T08:46:09.647Z,72.00
2023-01-11T08:47:09.597Z,80.00
2023-01-11T08:48:09.559Z,72.00
2023-01-11T08:49:09.547Z,60.00
2023-01-11T08:50:09.551Z,60.00
2023-01-11T08:51:09.568Z,56.00
2023-01-11T08:52:09.524Z,68.00
2023-01-11T08:53:11.540Z,72.00
2023-01-11T08:54:09.490Z,84.00
2023-01-11T08:55:09.483Z,96.00
2023-01-11T08:56:09.483Z,80.00
2023-01-11T08:57:09.477Z,76.00
2023-01-11T08:58:09.450Z,80.00
2023-01-11T08:59:09.450Z,92.00
2023-01-11T09:00:09.440Z,108.00
2023-01-11T09:01:09.442Z,112.00
2023-01-11T09:02:09.405Z,112.00
2023-01-11T09:03:09.421Z,116.00
2023-01-11T09:04:23.146Z,136.00
2023-01-11T09:05:10.382Z,132.00
2023-01-11T09:06:09.359Z,128.00
2023-01-11T09:07:09.364Z,116.00
2023-01-11T09:08:09.349Z,104.00
2023-01-11T09:09:09.345Z,100.00
2023-01-11T09:10:09.307Z,80.00
2023-01-11T09:11:09.315Z,84.00
2023-01-11T09:12:09.289Z,84.00
2023-01-11T09:13:09.289Z,96.00
2023-01-11T09:14:09.288Z,116.00
2023-01-11T09:15:09.255Z,160.00
2023-01-11T09:16:09.290Z,196.00
2023-01-11T09:17:09.258Z,216.00
2023-01-11T09:18:09.213Z,168.00
2023-01-11T09:19:09.218Z,140.00
2023-01-11T09:20:09.197Z,152.00
2023-01-11T09:21:09.202Z,148.00
2023-01-11T09:22:09.192Z,120.00
2023-01-11T09:23:09.165Z,100.00
2023-01-11T09:24:09.167Z,80.00
2023-01-11T09:25:09.146Z,68.00
2023-01-11T09:26:09.118Z,60.00
2023-01-11T09:27:09.214Z,60.00
2023-01-11T09:28:09.103Z,68.00
2023-01-11T09:29:09.159Z,108.00
2023-01-11T09:30:09.109Z,148.00
2023-01-11T09:31:09.107Z,140.00
2023-01-11T09:32:09.082Z,168.00
2023-01-11T09:33:09.045Z,152.00
2023-01-11T09:34:09.036Z,180.00
2023-01-11T09:35:09.040Z,208.00
2023-01-11T09:36:09.034Z,188.00
2023-01-11T09:37:09.025Z,188.00
2023-01-11T09:38:09.006Z,180.00
2023-01-11T09:39:08.987Z,140.00
2023-01-11T09:40:08.983Z,140.00
2023-01-11T09:41:08.961Z,136.00
2023-01-11T09:42:08.985Z,132.00
2023-01-11T09:43:08.946Z,116.00
2023-01-11T09:44:08.931Z,128.00
2023-01-11T09:45:08.907Z,112.00
2023-01-11T09:46:08.953Z,112.00
2023-01-11T09:47:08.903Z,224.00
2023-01-11T09:48:09.624Z,272.00
2023-01-11T09:49:08.858Z,224.00
2023-01-11T09:50:08.869Z,252.00
2023-01-11T09:51:08.854Z,216.00
2023-01-11T09:52:08.916Z,200.00
2023-01-11T09:53:08.853Z,200.00
2023-01-11T09:54:08.806Z,200.00
2023-01-11T09:55:08.798Z,204.00
2023-01-11T09:56:08.784Z,212.00
2023-01-11T09:57:08.798Z,216.00
2023-01-11T09:58:08.787Z,188.00
2023-01-11T09:59:08.766Z,172.00
2023-01-11T10:00:08.771Z,136.00
2023-01-11T10:01:08.754Z,116.00
2023-01-11T10:02:08.731Z,152.00
2023-01-11T10:03:08.736Z,152.00
2023-01-11T10:04:08.745Z,160.00
2023-01-11T10:05:08.732Z,180.00
2023-01-11T10:06:08.682Z,244.00
2023-01-11T10:07:08.679Z,224.00
2023-01-11T10:18:25.908Z,360.00
2023-01-11T10:18:30.558Z,292.00
2023-01-11T10:18:31.765Z,376.00
2023-01-11T10:18:34.381Z,400.00
2023-01-11T10:18:42.844Z,404.00
2023-01-11T10:19:33.378Z,284.00
2023-01-11T10:20:09.605Z,288.00
2023-01-11T10:21:08.508Z,292.00
2023-01-11T10:22:08.506Z,344.00
2023-01-11T10:23:08.511Z,396.00
2023-01-11T10:24:08.493Z,420.00
2023-01-11T10:25:09.160Z,424.00
2023-01-11T10:26:08.503Z,400.00
2023-01-11T10:27:08.571Z,408.00
2023-01-11T10:28:08.442Z,424.00
2023-01-11T10:29:08.449Z,436.00
2023-01-11T10:30:08.438Z,432.00
2023-01-11T10:31:08.518Z,420.00
2023-01-11T10:32:08.404Z,412.00
2023-01-11T10:33:08.372Z,392.00
2023-01-11T10:34:08.372Z,360.00
2023-01-11T10:35:08.350Z,360.00
2023-01-11T10:36:08.368Z,348.00
2023-01-11T10:37:08.343Z,332.00
2023-01-11T10:38:08.334Z,308.00
2023-01-11T10:39:08.300Z,328.00
2023-01-11T10:40:08.307Z,340.00
2023-01-11T10:41:08.401Z,292.00
2023-01-11T10:42:08.277Z,288.00
2023-01-11T10:43:08.286Z,288.00
2023-01-11T10:44:08.276Z,300.00
2023-01-11T10:45:08.233Z,304.00
2023-01-11T10:46:08.262Z,292.00
2023-01-11T10:47:08.218Z,284.00
2023-01-11T10:48:08.239Z,280.00
2023-01-11T10:49:08.181Z,268.00
2023-01-11T10:50:08.217Z,236.00
2023-01-11T10:51:08.182Z,240.00
2023-01-11T10:52:08.164Z,244.00
2023-01-11T10:53:08.157Z,288.00
2023-01-11T10:54:08.141Z,264.00
2023-01-11T10:55:08.125Z,288.00
2023-01-11T10:56:08.139Z,340.00
2023-01-11T10:57:08.828Z,348.00
2023-01-11T10:58:08.116Z,368.00
2023-01-11T10:59:08.090Z,340.00
2023-01-11T11:00:08.071Z,264.00
2023-01-11T11:01:08.098Z,248.00
2023-01-11T11:02:08.095Z,240.00
2023-01-11T11:03:08.061Z,256.00
2023-01-11T11:04:08.049Z,260.00
2023-01-11T11:05:08.030Z,236.00
2023-01-11T11:06:08.025Z,236.00
2023-01-11T11:07:07.985Z,228.00
2023-01-11T11:08:08.002Z,204.00
2023-01-11T11:09:07.985Z,204.00
2023-01-11T11:10:08.001Z,260.00
2023-01-11T11:11:07.933Z,292.00
2023-01-11T11:12:07.954Z,308.00
2023-01-11T11:13:07.933Z,320.00
2023-01-11T11:14:07.953Z,296.00
2023-01-11T11:15:07.919Z,352.00
2023-01-11T11:16:07.943Z,372.00
2023-01-11T11:17:07.895Z,396.00
2023-01-11T11:18:07.889Z,424.00
2023-01-11T11:19:07.874Z,428.00
2023-01-11T11:20:07.852Z,444.00
2023-01-11T11:21:08.191Z,496.00
2023-01-11T11:22:07.881Z,528.00
2023-01-11T11:23:07.822Z,520.00
2023-01-11T11:24:07.861Z,564.00
2023-01-11T11:25:07.826Z,576.00
2023-01-11T11:26:07.833Z,584.00
2023-01-11T11:27:07.786Z,600.00
2023-01-11T11:28:07.793Z,616.00
2023-01-11T11:29:07.740Z,652.00
2023-01-11T11:30:07.749Z,680.00
2023-01-11T11:31:07.749Z,676.00
2023-01-11T11:32:07.734Z,664.00
2023-01-11T11:33:07.686Z,612.00
2023-01-11T11:34:07.685Z,540.00
2023-01-11T11:35:07.686Z,484.00
2023-01-11T11:36:07.705Z,520.00
2023-01-11T11:37:07.645Z,476.00
2023-01-11T11:38:07.651Z,520.00
2023-01-11T11:39:07.669Z,636.00
2023-01-11T11:40:07.633Z,704.00
2023-01-11T11:41:08.132Z,732.00
2023-01-11T11:42:07.604Z,828.00
2023-01-11T11:43:07.587Z,796.00
2023-01-11T11:44:07.573Z,840.00
2023-01-11T11:45:07.554Z,804.00
2023-01-11T11:46:07.636Z,744.00
2023-01-11T11:47:07.526Z,1064.00
2023-01-11T11:48:07.537Z,1100.00
2023-01-11T11:49:07.504Z,1020.00
2023-01-11T11:50:07.505Z,824.00
2023-01-11T11:51:07.506Z,708.00
2023-01-11T11:52:07.479Z,688.00
2023-01-11T11:53:07.473Z,584.00
2023-01-11T11:54:07.561Z,656.00
2023-01-11T11:55:07.445Z,688.00
2023-01-11T11:56:07.476Z,704.00
2023-01-11T11:57:07.416Z,744.00
2023-01-11T11:58:07.442Z,792.00
2023-01-11T11:59:07.402Z,716.00
2023-01-11T12:00:07.396Z,836.00
2023-01-11T12:01:07.398Z,668.00
2023-01-11T12:02:07.399Z,636.00
2023-01-11T12:03:07.356Z,648.00
2023-01-11T12:04:07.367Z,688.00
2023-01-11T12:05:07.733Z,632.00
2023-01-11T12:06:07.325Z,708.00
2023-01-11T12:07:07.314Z,592.00
2023-01-11T12:08:07.309Z,632.00
2023-01-11T12:09:07.296Z,708.00
2023-01-11T12:10:07.352Z,660.00
2023-01-11T12:11:07.279Z,580.00
2023-01-11T12:12:07.257Z,548.00
2023-01-11T12:13:07.238Z,608.00
2023-01-11T12:14:07.235Z,644.00
2023-01-11T12:15:07.212Z,496.00
2023-01-11T12:16:07.328Z,464.00
2023-01-11T12:17:07.198Z,380.00
2023-01-11T12:18:07.202Z,396.00
2023-01-11T12:19:07.186Z,412.00
2023-01-11T12:20:07.185Z,416.00
2023-01-11T12:21:07.146Z,384.00
2023-01-11T12:22:07.156Z,392.00
2023-01-11T12:23:07.116Z,556.00
2023-01-11T12:24:07.138Z,556.00
2023-01-11T12:25:07.105Z,712.00
2023-01-11T12:26:07.094Z,908.00
2023-01-11T12:27:07.124Z,948.00
2023-01-11T12:28:07.101Z,872.00
2023-01-11T12:29:07.103Z,768.00
2023-01-11T12:30:07.054Z,728.00
2023-01-11T12:31:07.076Z,1232.00
2023-01-11T12:32:07.051Z,1016.00
2023-01-11T12:33:07.017Z,984.00
2023-01-11T12:34:07.005Z,656.00
2023-01-11T12:35:06.990Z,972.00
2023-01-11T12:36:06.995Z,800.00
2023-01-11T12:37:06.992Z,652.00
2023-01-11T12:38:06.962Z,520.00
2023-01-11T12:39:06.951Z,588.00
2023-01-11T12:40:07.065Z,540.00
2023-01-11T12:41:08.618Z,524.00
2023-01-11T12:42:06.917Z,572.00
2023-01-11T12:43:06.902Z,640.00
2023-01-11T12:44:06.907Z,832.00
2023-01-11T12:45:06.895Z,896.00
2023-01-11T12:46:07.162Z,660.00
2023-01-11T12:47:06.857Z,560.00
2023-01-11T12:48:06.860Z,552.00
2023-01-11T12:49:06.848Z,696.00
2023-01-11T12:50:06.835Z,788.00
2023-01-11T12:51:06.838Z,820.00
2023-01-11T12:52:06.828Z,840.00
2023-01-11T12:53:06.791Z,648.00
2023-01-11T12:54:06.786Z,660.00
2023-01-11T12:55:06.768Z,696.00
2023-01-11T12:56:06.807Z,748.00
2023-01-11T12:57:06.768Z,612.00
2023-01-11T12:58:06.749Z,716.00
2023-01-11T12:59:06.715Z,712.00
2023-01-11T13:00:06.729Z,712.00
2023-01-11T13:01:06.803Z,672.00
2023-01-11T13:02:06.781Z,544.00
2023-01-11T13:03:06.675Z,536.00
2023-01-11T13:04:06.659Z,556.00
2023-01-11T13:05:06.667Z,636.00
2023-01-11T13:06:06.651Z,652.00